Time;durP1;ratioP1;P1;durP2;ratioP2;P2;SDS_P1;SDS_P2;PMS_P1;PMS_P2;Temp;Humidity;BMP_temperature;BMP_pressure;BME280_temperature;BME280_humidity;BME280_pressure;Samples;Min_cycle;Max_cycle;Signal;HPM_P1;HPM_P2
2021/01/07 00:00:51;;;;;;;12.63;7.00;;;;;;;;;;5052356;28;20013;-73
2021/01/07 00:03:17;;;;;;;15.15;6.10;;;;;;;;;;5052083;28;20362;-72
2021/01/07 00:05:43;;;;;;;12.82;7.05;;;;;;;;;;5052172;28;20037;-72
2021/01/07 00:08:09;;;;;;;15.32;7.03;;;;;;;;;;5052164;28;20071;-72
2021/01/07 00:10:35;;;;;;;13.32;6.63;;;;;;;;;;5052087;28;20072;-72
2021/01/07 00:13:01;;;;;;;14.45;6.50;;;;;;;;;;5051888;28;20024;-72
2021/01/07 00:15:27;;;;;;;13.57;6.85;;;;;;;;;;5052295;28;20024;-72
2021/01/07 00:17:53;;;;;;;16.08;7.18;;;;;;;;;;5052290;28;20025;-72
2021/01/07 00:20:19;;;;;;;11.63;6.38;;;;;;;;;;5050738;28;20116;-72
2021/01/07 00:22:45;;;;;;;12.63;7.25;;;;;;;;;;5052612;28;20047;-72
2021/01/07 00:25:11;;;;;;;12.32;6.20;;;;;;;;;;5050581;28;20466;-72
2021/01/07 00:27:37;;;;;;;13.55;6.18;;;;;;;;;;5050856;28;20025;-72
2021/01/07 00:30:04;;;;;;;15.30;6.95;;;;;;;;;;5050622;28;20029;-72
2021/01/07 00:32:30;;;;;;;12.60;6.78;;;;;;;;;;5051907;28;20448;-73
2021/01/07 00:34:56;;;;;;;13.75;6.53;;;;;;;;;;5052149;28;20104;-73
2021/01/07 00:37:22;;;;;;;13.02;6.22;;;;;;;;;;5050644;28;20024;-72
2021/01/07 00:39:49;;;;;;;13.77;6.90;;;;;;;;;;5052023;28;20017;-72
2021/01/07 00:42:17;;;;;;;15.02;7.55;;;;;;;;;;5051420;28;20049;-72
2021/01/07 00:44:43;;;;;;;16.27;7.00;;;;;;;;;;5051977;28;20024;-72
2021/01/07 00:47:09;;;;;;;14.70;6.53;;;;;;;;;;5051608;28;20516;-72
2021/01/07 00:49:35;;;;;;;14.25;7.07;;;;;;;;;;5052008;28;20461;-73
2021/01/07 00:52:01;;;;;;;12.63;6.43;;;;;;;;;;5051772;28;20123;-74
2021/01/07 00:54:29;;;;;;;15.35;6.30;;;;;;;;;;5050682;28;20017;-73
2021/01/07 00:56:55;;;;;;;15.05;6.50;;;;;;;;;;5051933;28;20028;-73
2021/01/07 00:59:21;;;;;;;12.52;6.43;;;;;;;;;;5050373;28;20029;-73
2021/01/07 01:01:47;;;;;;;16.90;6.82;;;;;;;;;;5052237;28;20028;-73
2021/01/07 01:04:14;;;;;;;14.20;6.78;;;;;;;;;;5064742;28;20044;-73
2021/01/07 01:06:40;;;;;;;14.95;6.18;;;;;;;;;;5075680;28;20013;-73
2021/01/07 01:09:08;;;;;;;14.02;6.38;;;;;;;;;;5075458;28;20027;-73
2021/01/07 01:11:40;;;;;;;16.58;7.03;;;;;;;;;;5075691;28;20024;-73
2021/01/07 01:14:07;;;;;;;14.48;6.78;;;;;;;;;;5075067;28;20044;-73
2021/01/07 01:16:33;;;;;;;15.13;7.68;;;;;;;;;;5075587;28;20448;-73
2021/01/07 01:18:59;;;;;;;15.13;7.53;;;;;;;;;;5075200;28;20070;-73
2021/01/07 01:21:25;;;;;;;11.85;6.82;;;;;;;;;;5075273;28;20020;-73
2021/01/07 01:23:51;;;;;;;12.38;6.38;;;;;;;;;;5075424;28;20031;-73
2021/01/07 01:26:18;;;;;;;15.07;8.15;;;;;;;;;;5075139;28;20070;-73
2021/01/07 01:28:44;;;;;;;16.88;8.93;;;;;;;;;;5073823;28;20512;-73
2021/01/07 01:31:11;;;;;;;12.38;7.25;;;;;;;;;;5074821;28;20017;-73
2021/01/07 01:33:37;;;;;;;15.27;7.45;;;;;;;;;;5074854;28;20020;-73
2021/01/07 01:36:03;;;;;;;14.30;7.80;;;;;;;;;;5074961;28;20124;-73
2021/01/07 01:38:29;;;;;;;14.88;7.55;;;;;;;;;;5073580;28;20103;-73
2021/01/07 01:40:59;;;;;;;13.40;7.70;;;;;;;;;;5074926;28;20123;-73
2021/01/07 01:43:25;;;;;;;13.77;7.30;;;;;;;;;;5074604;28;20028;-73
2021/01/07 01:45:52;;;;;;;16.05;8.10;;;;;;;;;;5073808;28;20021;-73
2021/01/07 01:48:18;;;;;;;11.95;7.13;;;;;;;;;;5075035;28;20070;-73
2021/01/07 01:50:44;;;;;;;16.23;8.20;;;;;;;;;;5074972;28;20020;-72
2021/01/07 01:53:10;;;;;;;12.23;7.55;;;;;;;;;;5074926;28;20445;-73
2021/01/07 01:55:36;;;;;;;15.07;8.38;;;;;;;;;;5073505;28;20075;-72
2021/01/07 01:58:03;;;;;;;13.60;7.68;;;;;;;;;;5075106;28;20055;-72
2021/01/07 02:00:29;;;;;;;15.70;8.70;;;;;;;;;;5074517;28;20028;-73
2021/01/07 02:02:55;;;;;;;18.55;8.95;;;;;;;;;;5073286;28;20024;-72
2021/01/07 02:05:21;;;;;;;16.05;8.68;;;;;;;;;;5074312;28;20050;-73
2021/01/07 02:07:49;;;;;;;16.73;10.50;;;;;;;;;;5074347;28;20012;-73
2021/01/07 02:10:15;;;;;;;19.05;9.65;;;;;;;;;;5074089;28;20040;-73
2021/01/07 02:12:47;;;;;;;19.17;10.50;;;;;;;;;;5073170;28;20399;-73
2021/01/07 02:15:14;;;;;;;19.38;10.93;;;;;;;;;;5074013;28;20028;-73
2021/01/07 02:17:40;;;;;;;18.58;10.93;;;;;;;;;;5073561;28;20016;-73
2021/01/07 02:20:07;;;;;;;18.95;9.75;;;;;;;;;;5074409;28;20146;-73
2021/01/07 02:22:33;;;;;;;19.02;10.43;;;;;;;;;;5074489;28;20541;-72
2021/01/07 02:24:59;;;;;;;21.48;11.50;;;;;;;;;;5074462;28;20032;-72
2021/01/07 02:27:25;;;;;;;21.60;11.70;;;;;;;;;;5073797;28;20170;-72
2021/01/07 02:29:51;;;;;;;17.48;10.18;;;;;;;;;;5074000;28;20016;-72
2021/01/07 02:32:17;;;;;;;22.02;10.40;;;;;;;;;;5070923;28;20469;-72
2021/01/07 02:34:43;;;;;;;17.52;10.38;;;;;;;;;;5073874;28;20059;-72
2021/01/07 02:37:09;;;;;;;18.67;10.88;;;;;;;;;;5072442;28;20061;-72
2021/01/07 02:39:35;;;;;;;15.60;10.15;;;;;;;;;;5072626;28;20112;-72
2021/01/07 02:42:01;;;;;;;21.38;11.73;;;;;;;;;;5072634;28;20072;-73
2021/01/07 02:44:27;;;;;;;22.42;11.52;;;;;;;;;;5073359;28;20547;-73
2021/01/07 02:46:54;;;;;;;18.15;11.20;;;;;;;;;;5072524;28;20078;-72
2021/01/07 02:49:20;;;;;;;18.67;11.38;;;;;;;;;;5071079;28;20389;-73
2021/01/07 02:51:46;;;;;;;19.67;12.05;;;;;;;;;;5073776;28;20021;-72
2021/01/07 02:54:12;;;;;;;19.08;12.13;;;;;;;;;;5072182;28;20414;-72
2021/01/07 02:56:38;;;;;;;15.50;11.45;;;;;;;;;;5073968;28;20021;-72
2021/01/07 02:59:04;;;;;;;19.63;11.05;;;;;;;;;;5072301;28;20021;-72
2021/01/07 03:01:32;;;;;;;18.92;10.60;;;;;;;;;;5073400;28;20020;-72
2021/01/07 03:03:58;;;;;;;19.92;12.02;;;;;;;;;;5073521;28;20024;-72
2021/01/07 03:06:24;;;;;;;19.45;11.85;;;;;;;;;;5073271;28;20023;-73
2021/01/07 03:08:50;;;;;;;20.25;11.13;;;;;;;;;;5073464;28;20016;-73
2021/01/07 03:11:17;;;;;;;18.23;9.48;;;;;;;;;;5073135;28;20021;-72
2021/01/07 03:13:43;;;;;;;21.42;10.98;;;;;;;;;;5073098;28;20047;-72
2021/01/07 03:16:09;;;;;;;16.95;10.93;;;;;;;;;;5073284;28;20021;-71
2021/01/07 03:18:35;;;;;;;17.48;10.43;;;;;;;;;;5071839;28;20025;-72
2021/01/07 03:21:01;;;;;;;17.08;10.18;;;;;;;;;;5072896;28;20047;-72
2021/01/07 03:23:27;;;;;;;16.45;11.50;;;;;;;;;;5072911;28;20013;-72
2021/01/07 03:25:53;;;;;;;18.45;10.10;;;;;;;;;;5073038;28;20038;-72
2021/01/07 03:28:19;;;;;;;14.20;8.68;;;;;;;;;;5072511;28;20104;-73
2021/01/07 03:30:45;;;;;;;17.80;9.98;;;;;;;;;;5073070;28;20020;-72
2021/01/07 03:33:11;;;;;;;16.98;9.88;;;;;;;;;;5071676;28;20348;-72
2021/01/07 03:35:37;;;;;;;17.00;9.60;;;;;;;;;;5072922;28;20081;-72
2021/01/07 03:38:03;;;;;;;14.98;9.25;;;;;;;;;;5071510;28;20387;-72
2021/01/07 03:40:29;;;;;;;16.00;9.93;;;;;;;;;;5071024;28;20067;-73
2021/01/07 03:42:55;;;;;;;14.25;9.27;;;;;;;;;;5072838;28;20016;-73
2021/01/07 03:45:21;;;;;;;16.92;9.95;;;;;;;;;;5072474;28;20086;-73
2021/01/07 03:47:47;;;;;;;14.73;9.27;;;;;;;;;;5071424;28;20016;-71
2021/01/07 03:50:13;;;;;;;16.38;9.48;;;;;;;;;;5071058;28;20402;-71
2021/01/07 03:52:39;;;;;;;19.52;10.43;;;;;;;;;;5072674;28;20073;-71
2021/01/07 03:55:06;;;;;;;14.02;9.30;;;;;;;;;;5071302;28;20537;-72
2021/01/07 03:57:32;;;;;;;16.02;10.18;;;;;;;;;;5072361;28;20012;-72
2021/01/07 03:59:58;;;;;;;18.35;9.80;;;;;;;;;;5071318;28;20082;-72
2021/01/07 04:02:24;;;;;;;17.95;10.80;;;;;;;;;;5072007;28;20024;-72
2021/01/07 04:04:50;;;;;;;17.50;10.15;;;;;;;;;;5071156;28;20032;-72
2021/01/07 04:07:16;;;;;;;13.90;8.15;;;;;;;;;;5072250;28;20013;-73
2021/01/07 04:09:42;;;;;;;13.80;8.10;;;;;;;;;;5071146;28;20020;-73
2021/01/07 04:12:08;;;;;;;13.68;7.90;;;;;;;;;;5072436;28;20401;-72
2021/01/07 04:14:34;;;;;;;14.95;8.52;;;;;;;;;;5072466;28;20117;-72
2021/01/07 04:17:01;;;;;;;14.75;8.57;;;;;;;;;;5072404;28;20365;-72
2021/01/07 04:19:27;;;;;;;12.70;8.65;;;;;;;;;;5072174;28;20261;-72
2021/01/07 04:21:53;;;;;;;14.85;8.43;;;;;;;;;;5072401;28;20507;-72
2021/01/07 04:24:19;;;;;;;12.13;7.82;;;;;;;;;;5070786;28;20078;-73
2021/01/07 04:26:45;;;;;;;13.05;8.07;;;;;;;;;;5071003;28;20381;-73
2021/01/07 04:29:11;;;;;;;13.50;8.30;;;;;;;;;;5071974;28;20016;-73
2021/01/07 04:31:38;;;;;;;15.63;9.30;;;;;;;;;;5070687;28;20036;-71
2021/01/07 04:34:04;;;;;;;17.20;10.38;;;;;;;;;;5071195;28;20451;-71
2021/01/07 04:36:30;;;;;;;18.77;9.80;;;;;;;;;;5071985;28;20555;-72
2021/01/07 04:38:56;;;;;;;20.20;10.25;;;;;;;;;;5072156;28;20032;-71
2021/01/07 04:41:23;;;;;;;17.33;11.73;;;;;;;;;;5074316;28;20061;-72
2021/01/07 04:43:56;;;;;;;19.55;11.85;;;;;;;;;;5076233;28;20016;-71
2021/01/07 04:46:22;;;;;;;18.80;11.10;;;;;;;;;;5075951;28;20019;-72
2021/01/07 04:48:48;;;;;;;18.83;11.18;;;;;;;;;;5076005;28;20014;-72
2021/01/07 04:51:14;;;;;;;18.80;12.13;;;;;;;;;;5074531;28;20066;-72
2021/01/07 04:53:40;;;;;;;20.05;12.25;;;;;;;;;;5075848;28;20028;-72
2021/01/07 04:56:06;;;;;;;22.35;13.30;;;;;;;;;;5075749;28;20021;-71
2021/01/07 04:58:32;;;;;;;22.60;13.60;;;;;;;;;;5074125;28;20457;-72
2021/01/07 05:00:58;;;;;;;23.85;14.13;;;;;;;;;;5075914;28;20024;-72
2021/01/07 05:03:25;;;;;;;23.42;13.65;;;;;;;;;;5075821;28;20031;-73
2021/01/07 05:05:54;;;;;;;24.13;14.40;;;;;;;;;;5074390;28;20028;-73
2021/01/07 05:08:20;;;;;;;25.85;14.38;;;;;;;;;;5075196;28;20028;-73
2021/01/07 05:10:47;;;;;;;27.52;15.32;;;;;;;;;;5074387;28;20055;-73
2021/01/07 05:13:14;;;;;;;24.35;14.57;;;;;;;;;;5074376;28;20016;-73
2021/01/07 05:15:40;;;;;;;25.63;14.82;;;;;;;;;;5075119;28;20434;-73
2021/01/07 05:18:07;;;;;;;23.67;14.60;;;;;;;;;;5074227;28;20021;-73
2021/01/07 05:20:33;;;;;;;23.42;13.82;;;;;;;;;;5073997;28;20059;-73
2021/01/07 05:23:02;;;;;;;24.70;15.13;;;;;;;;;;5075525;28;20437;-73
2021/01/07 05:25:32;;;;;;;21.27;13.63;;;;;;;;;;5073816;28;20032;-73
2021/01/07 05:28:01;;;;;;;26.23;14.47;;;;;;;;;;5075374;28;20023;-72
2021/01/07 05:30:28;;;;;;;21.35;12.98;;;;;;;;;;5075082;28;20017;-72
2021/01/07 05:32:59;;;;;;;20.05;11.93;;;;;;;;;;5075273;28;20023;-72
2021/01/07 05:35:25;;;;;;;27.65;14.18;;;;;;;;;;5074947;28;20056;-72
2021/01/07 05:37:51;;;;;;;20.23;12.52;;;;;;;;;;5074950;28;20075;-72
2021/01/07 05:40:18;;;;;;;18.83;12.05;;;;;;;;;;5074878;28;20480;-72
2021/01/07 05:42:45;;;;;;;22.38;13.20;;;;;;;;;;5075191;28;20056;-72
2021/01/07 05:45:15;;;;;;;20.38;12.32;;;;;;;;;;5075006;28;20029;-72
2021/01/07 05:47:51;;;;;;;18.58;12.00;;;;;;;;;;5073521;28;20027;-72
2021/01/07 05:50:19;;;;;;;17.48;11.57;;;;;;;;;;5073536;28;20027;-72
2021/01/07 05:52:46;;;;;;;18.13;10.73;;;;;;;;;;5073598;28;20096;-72
2021/01/07 05:55:13;;;;;;;21.55;11.85;;;;;;;;;;5074629;28;20032;-72
2021/01/07 05:57:39;;;;;;;16.23;10.35;;;;;;;;;;5074572;28;20017;-72
2021/01/07 06:00:06;;;;;;;15.32;10.40;;;;;;;;;;5074812;28;20016;-72
2021/01/07 06:02:33;;;;;;;18.85;11.30;;;;;;;;;;5073202;28;20016;-72
2021/01/07 06:05:02;;;;;;;16.08;9.75;;;;;;;;;;5074783;28;20078;-72
2021/01/07 06:07:28;;;;;;;16.30;9.88;;;;;;;;;;5074415;28;20017;-73
2021/01/07 06:09:55;;;;;;;15.95;9.95;;;;;;;;;;5074587;28;20522;-72
2021/01/07 06:12:21;;;;;;;17.85;10.50;;;;;;;;;;5073251;28;20020;-73
2021/01/07 06:14:47;;;;;;;15.63;10.52;;;;;;;;;;5073232;28;20017;-73
2021/01/07 06:17:13;;;;;;;14.23;9.70;;;;;;;;;;5074458;28;20020;-73
2021/01/07 06:19:40;;;;;;;14.90;9.25;;;;;;;;;;5074211;28;20025;-72
2021/01/07 06:22:11;;;;;;;15.52;9.80;;;;;;;;;;5074407;28;20027;-72
2021/01/07 06:24:38;;;;;;;15.30;9.27;;;;;;;;;;5074052;28;20021;-72
2021/01/07 06:27:23;;;;;;;15.23;9.70;;;;;;;;;;5072985;28;20111;-73
2021/01/07 06:29:49;;;;;;;16.92;10.57;;;;;;;;;;5073903;28;20373;-73
2021/01/07 06:32:18;;;;;;;16.02;10.02;;;;;;;;;;5072581;28;20220;-72
2021/01/07 06:34:45;;;;;;;18.30;10.55;;;;;;;;;;5073822;28;20074;-73
2021/01/07 06:37:11;;;;;;;17.70;10.93;;;;;;;;;;5074073;28;20016;-73
2021/01/07 06:39:44;;;;;;;17.77;10.63;;;;;;;;;;5073700;28;20013;-73
2021/01/07 06:42:19;;;;;;;15.93;10.63;;;;;;;;;;5073914;28;20403;-72
2021/01/07 06:44:45;;;;;;;18.40;11.95;;;;;;;;;;5073612;28;20031;-72
2021/01/07 06:47:18;;;;;;;16.25;10.40;;;;;;;;;;5073813;28;20017;-73
2021/01/07 06:49:45;;;;;;;17.55;11.15;;;;;;;;;;5072215;28;20025;-73
2021/01/07 06:52:11;;;;;;;15.20;9.80;;;;;;;;;;5073447;28;20492;-72
2021/01/07 06:54:38;;;;;;;18.10;10.82;;;;;;;;;;5072011;28;20510;-72
2021/01/07 06:57:04;;;;;;;17.50;10.30;;;;;;;;;;5072275;28;20036;-73
2021/01/07 06:59:30;;;;;;;14.45;9.70;;;;;;;;;;5071930;28;20025;-72
2021/01/07 07:01:57;;;;;;;16.17;10.63;;;;;;;;;;5071580;28;20103;-72
2021/01/07 07:04:28;;;;;;;15.95;10.40;;;;;;;;;;5073356;28;20082;-72
2021/01/07 07:07:09;;;;;;;17.27;10.45;;;;;;;;;;5073244;28;20356;-72
2021/01/07 07:09:40;;;;;;;17.50;11.02;;;;;;;;;;5071696;28;20346;-72
2021/01/07 07:12:07;;;;;;;16.30;9.38;;;;;;;;;;5071874;28;20012;-73
2021/01/07 07:14:33;;;;;;;15.75;10.02;;;;;;;;;;5072981;28;20025;-72
2021/01/07 07:17:06;;;;;;;15.32;9.30;;;;;;;;;;5073186;28;20017;-73
2021/01/07 07:19:32;;;;;;;15.45;9.20;;;;;;;;;;5072933;28;20361;-73
2021/01/07 07:22:02;;;;;;;16.48;10.82;;;;;;;;;;5072724;28;20476;-72
2021/01/07 07:24:32;;;;;;;16.40;9.18;;;;;;;;;;5071488;28;20032;-72
2021/01/07 07:27:02;;;;;;;17.90;11.60;;;;;;;;;;5072992;28;20349;-72
2021/01/07 07:29:30;;;;;;;15.23;9.20;;;;;;;;;;5072563;28;20055;-73
2021/01/07 07:31:56;;;;;;;14.23;8.82;;;;;;;;;;5072868;28;20020;-73
2021/01/07 07:34:29;;;;;;;14.35;8.73;;;;;;;;;;5072762;28;20016;-74
2021/01/07 07:36:55;;;;;;;14.95;9.95;;;;;;;;;;5071396;28;20074;-74
2021/01/07 07:39:25;;;;;;;11.80;7.28;;;;;;;;;;5072659;28;20147;-74
2021/01/07 07:42:03;;;;;;;19.45;11.38;;;;;;;;;;5071087;28;20041;-74
2021/01/07 07:44:29;;;;;;;15.20;9.63;;;;;;;;;;5071177;28;20031;-74
2021/01/07 07:46:55;;;;;;;14.27;9.05;;;;;;;;;;5072606;28;20027;-73
2021/01/07 07:49:24;;;;;;;17.40;11.45;;;;;;;;;;5071229;28;20024;-73
2021/01/07 07:51:51;;;;;;;14.25;9.75;;;;;;;;;;5072217;28;20016;-74
2021/01/07 07:54:18;;;;;;;13.93;8.05;;;;;;;;;;5070984;28;20059;-74
2021/01/07 07:56:44;;;;;;;17.85;11.05;;;;;;;;;;5062724;28;20103;-73
2021/01/07 07:59:11;;;;;;;14.68;10.32;;;;;;;;;;5060210;28;20021;-73
2021/01/07 08:01:48;;;;;;;16.00;8.60;;;;;;;;;;5058484;28;20075;-73
2021/01/07 08:04:18;;;;;;;16.67;9.63;;;;;;;;;;5060117;28;20056;-74
2021/01/07 08:06:44;;;;;;;14.40;9.23;;;;;;;;;;5059250;28;20025;-74
2021/01/07 08:09:12;;;;;;;13.85;9.07;;;;;;;;;;5061594;28;20463;-74
2021/01/07 08:11:51;;;;;;;14.15;9.88;;;;;;;;;;5069866;28;20115;-74
2021/01/07 08:14:28;;;;;;;13.50;8.73;;;;;;;;;;5069092;28;20025;-75
2021/01/07 08:16:58;;;;;;;12.45;8.23;;;;;;;;;;5071148;28;20027;-75
2021/01/07 08:19:24;;;;;;;13.80;8.77;;;;;;;;;;5070053;28;20447;-75
2021/01/07 08:21:51;;;;;;;10.93;7.40;;;;;;;;;;5069766;28;20021;-74
2021/01/07 08:24:18;;;;;;;13.45;8.30;;;;;;;;;;5071195;28;20032;-74
2021/01/07 08:26:45;;;;;;;14.18;8.80;;;;;;;;;;5070901;28;20036;-74
2021/01/07 08:29:12;;;;;;;14.63;8.32;;;;;;;;;;5071177;28;20024;-74
2021/01/07 08:32:00;;;;;;;15.80;9.35;;;;;;;;;;5071288;28;20044;-74
2021/01/07 08:34:26;;;;;;;16.13;9.85;;;;;;;;;;5069921;28;20044;-74
2021/01/07 08:36:52;;;;;;;13.85;8.90;;;;;;;;;;5070733;28;20398;-74
2021/01/07 08:39:18;;;;;;;15.75;9.60;;;;;;;;;;5069767;28;20021;-75
2021/01/07 08:41:45;;;;;;;14.50;9.52;;;;;;;;;;5069567;28;20384;-74
2021/01/07 08:44:12;;;;;;;17.40;9.63;;;;;;;;;;5070064;28;20050;-74
2021/01/07 08:46:43;;;;;;;15.85;10.30;;;;;;;;;;5071087;28;20115;-74
2021/01/07 08:49:10;;;;;;;16.67;10.23;;;;;;;;;;5063975;28;20059;-75
2021/01/07 08:51:37;;;;;;;17.42;11.07;;;;;;;;;;5049927;28;20018;-76
2021/01/07 08:54:09;;;;;;;14.75;11.38;;;;;;;;;;5052331;28;20025;-74
2021/01/07 08:56:36;;;;;;;15.15;9.90;;;;;;;;;;5050319;28;20342;-74
2021/01/07 08:59:21;;;;;;;16.70;10.35;;;;;;;;;;5052054;28;20090;-74
2021/01/07 09:01:48;;;;;;;15.15;10.55;;;;;;;;;;5051585;28;20500;-73
2021/01/07 09:04:26;;;;;;;18.70;8.20;;;;;;;;;;5051763;28;20029;-73
2021/01/07 09:06:53;;;;;;;14.98;9.48;;;;;;;;;;5050372;28;20417;-74
2021/01/07 09:09:19;;;;;;;18.00;9.20;;;;;;;;;;5050161;28;20021;-74
2021/01/07 09:11:45;;;;;;;17.23;11.10;;;;;;;;;;5050210;28;20071;-73
2021/01/07 09:14:11;;;;;;;15.68;9.52;;;;;;;;;;5051802;28;20020;-73
2021/01/07 09:16:37;;;;;;;17.80;10.93;;;;;;;;;;5051848;28;20020;-74
2021/01/07 09:19:04;;;;;;;19.70;12.38;;;;;;;;;;5051751;28;20025;-74
2021/01/07 09:21:30;;;;;;;14.43;9.30;;;;;;;;;;5052024;28;20025;-73
2021/01/07 09:23:57;;;;;;;13.98;8.98;;;;;;;;;;5057478;28;20013;-73
2021/01/07 09:26:30;;;;;;;15.50;9.15;;;;;;;;;;5052746;28;20358;-74
2021/01/07 09:28:56;;;;;;;17.98;10.40;;;;;;;;;;5054075;28;20449;-74
2021/01/07 09:31:22;;;;;;;14.80;8.85;;;;;;;;;;5055342;28;20457;-73
2021/01/07 09:33:48;;;;;;;12.65;9.18;;;;;;;;;;5053677;28;20017;-74
2021/01/07 09:36:14;;;;;;;13.70;8.77;;;;;;;;;;5055528;28;20032;-73
2021/01/07 09:38:40;;;;;;;13.98;8.45;;;;;;;;;;5054551;28;20361;-74
2021/01/07 09:41:06;;;;;;;12.95;8.98;;;;;;;;;;5053619;28;20055;-74
2021/01/07 09:43:35;;;;;;;11.73;7.25;;;;;;;;;;5053573;28;20112;-74
2021/01/07 09:46:01;;;;;;;14.32;9.02;;;;;;;;;;5053790;28;20036;-75
2021/01/07 09:48:27;;;;;;;15.02;9.00;;;;;;;;;;5053712;28;20032;-75
2021/01/07 09:50:53;;;;;;;12.77;8.18;;;;;;;;;;5053941;28;20013;-74
2021/01/07 09:53:21;;;;;;;13.20;7.03;;;;;;;;;;5068739;28;20032;-73
2021/01/07 09:55:49;;;;;;;13.45;8.30;;;;;;;;;;5074522;28;20017;-75
2021/01/07 09:58:15;;;;;;;13.00;7.03;;;;;;;;;;5073355;28;20028;-74
2021/01/07 10:00:42;;;;;;;9.95;6.70;;;;;;;;;;5073044;28;20487;-75
2021/01/07 10:03:08;;;;;;;11.55;7.00;;;;;;;;;;5073048;28;20453;-74
2021/01/07 10:05:34;;;;;;;10.57;6.45;;;;;;;;;;5072568;28;20037;-73
2021/01/07 10:08:00;;;;;;;10.35;6.75;;;;;;;;;;5074853;28;20036;-74
2021/01/07 10:10:26;;;;;;;10.27;6.95;;;;;;;;;;5074421;28;20330;-74
2021/01/07 10:12:52;;;;;;;10.18;5.18;;;;;;;;;;5072372;28;20084;-74
2021/01/07 10:15:18;;;;;;;9.48;6.13;;;;;;;;;;5073399;28;20016;-77
2021/01/07 10:17:44;;;;;;;10.45;5.75;;;;;;;;;;5072692;28;20031;-74
2021/01/07 10:20:10;;;;;;;9.65;5.47;;;;;;;;;;5074359;28;20020;-75
2021/01/07 10:22:38;;;;;;;10.65;6.22;;;;;;;;;;5072415;28;20020;-74
2021/01/07 10:25:05;;;;;;;10.68;6.70;;;;;;;;;;5074135;28;20021;-73
2021/01/07 10:27:32;;;;;;;9.45;6.15;;;;;;;;;;5072484;28;20099;-75
2021/01/07 10:29:59;;;;;;;9.75;5.78;;;;;;;;;;5074043;28;20023;-77
2021/01/07 10:32:25;;;;;;;9.73;6.15;;;;;;;;;;5072631;28;20028;-78
2021/01/07 10:34:52;;;;;;;9.48;5.88;;;;;;;;;;5072234;28;20029;-74
2021/01/07 10:37:19;;;;;;;8.75;6.05;;;;;;;;;;5071492;28;20020;-73
2021/01/07 10:39:46;;;;;;;9.00;6.00;;;;;;;;;;5073451;28;20467;-73
2021/01/07 10:42:14;;;;;;;11.60;5.90;;;;;;;;;;5073952;28;20040;-73
2021/01/07 10:44:41;;;;;;;11.65;6.38;;;;;;;;;;5073143;28;20062;-73
2021/01/07 10:47:08;;;;;;;10.05;6.25;;;;;;;;;;5072734;28;20499;-73
2021/01/07 10:49:35;;;;;;;8.82;6.35;;;;;;;;;;5072717;28;20020;-73
2021/01/07 10:52:04;;;;;;;12.50;6.32;;;;;;;;;;5063392;28;20021;-73
2021/01/07 10:54:49;;;;;;;10.18;5.90;;;;;;;;;;5052914;28;20029;-72
2021/01/07 10:57:29;;;;;;;8.55;5.35;;;;;;;;;;5052846;28;20033;-73
2021/01/07 11:00:04;;;;;;;9.05;5.57;;;;;;;;;;5051258;28;20365;-73
2021/01/07 11:02:30;;;;;;;8.60;5.35;;;;;;;;;;5051540;28;20027;-72
2021/01/07 11:05:15;;;;;;;10.43;5.68;;;;;;;;;;5052310;28;20029;-73
2021/01/07 11:07:41;;;;;;;8.52;5.40;;;;;;;;;;5051073;28;20025;-72
2021/01/07 11:10:07;;;;;;;8.05;5.03;;;;;;;;;;5052522;28;20032;-74
2021/01/07 11:12:41;;;;;;;8.70;5.13;;;;;;;;;;5051273;28;20102;-75
2021/01/07 11:15:11;;;;;;;7.00;4.43;;;;;;;;;;5051113;28;20453;-75
2021/01/07 11:17:44;;;;;;;8.82;4.80;;;;;;;;;;5050897;28;20102;-77
2021/01/07 11:20:11;;;;;;;10.32;5.47;;;;;;;;;;5051095;28;20036;-77
2021/01/07 11:22:38;;;;;;;16.48;9.13;;;;;;;;;;5050714;28;20123;-72
2021/01/07 11:25:06;;;;;;;8.30;4.03;;;;;;;;;;5051985;28;20093;-72
2021/01/07 11:27:34;;;;;;;7.32;4.57;;;;;;;;;;5050889;28;20523;-72
2021/01/07 11:30:03;;;;;;;21.90;9.13;;;;;;;;;;5051884;28;20017;-72
2021/01/07 11:32:30;;;;;;;11.35;6.53;;;;;;;;;;5050953;28;20044;-72
2021/01/07 11:34:59;;;;;;;7.80;3.47;;;;;;;;;;5050748;28;20021;-72
2021/01/07 11:37:43;;;;;;;5.10;2.90;;;;;;;;;;5050972;28;20020;-72
2021/01/07 11:40:13;;;;;;;7.30;2.92;;;;;;;;;;5050710;28;20087;-72
2021/01/07 11:42:58;;;;;;;5.20;2.95;;;;;;;;;;5050514;28;20094;-73
2021/01/07 11:45:31;;;;;;;5.40;3.22;;;;;;;;;;5050424;28;20036;-74
2021/01/07 11:48:05;;;;;;;6.25;3.10;;;;;;;;;;5050371;28;20124;-74
2021/01/07 11:50:36;;;;;;;6.25;3.42;;;;;;;;;;5050433;28;20450;-74
2021/01/07 11:53:02;;;;;;;5.60;3.33;;;;;;;;;;5050485;28;20036;-74
2021/01/07 11:55:28;;;;;;;6.47;3.78;;;;;;;;;;5050594;28;20453;-72
2021/01/07 11:57:55;;;;;;;6.15;3.90;;;;;;;;;;5050371;28;20017;-73
2021/01/07 12:00:21;;;;;;;6.10;3.33;;;;;;;;;;5050594;28;20059;-72
2021/01/07 12:02:50;;;;;;;7.28;4.35;;;;;;;;;;5051414;28;20116;-73
2021/01/07 12:05:17;;;;;;;13.18;9.90;;;;;;;;;;5050466;28;20021;-74
2021/01/07 12:07:56;;;;;;;8.48;6.00;;;;;;;;;;5050342;28;20017;-75
2021/01/07 12:10:22;;;;;;;5.30;2.97;;;;;;;;;;5050488;28;20024;-75
2021/01/07 12:13:07;;;;;;;5.63;3.13;;;;;;;;;;5051608;28;20120;-74
2021/01/07 12:15:36;;;;;;;5.18;2.13;;;;;;;;;;5050245;28;20025;-76
2021/01/07 12:18:03;;;;;;;5.40;2.45;;;;;;;;;;5051677;28;20099;-75
2021/01/07 12:20:30;;;;;;;8.50;5.25;;;;;;;;;;5050451;28;20047;-74
2021/01/07 12:22:56;;;;;;;8.05;3.20;;;;;;;;;;5051404;28;20017;-74
2021/01/07 12:25:23;;;;;;;5.82;3.10;;;;;;;;;;5050183;28;20025;-75
2021/01/07 12:27:49;;;;;;;8.02;2.95;;;;;;;;;;5053079;28;20017;-73
2021/01/07 12:30:19;;;;;;;4.38;2.28;;;;;;;;;;5060050;28;20469;-74
2021/01/07 12:32:51;;;;;;;3.67;1.73;;;;;;;;;;5059179;28;20013;-75
2021/01/07 12:35:21;;;;;;;4.53;1.63;;;;;;;;;;5061392;28;20473;-74
2021/01/07 12:38:00;;;;;;;3.97;1.70;;;;;;;;;;5065596;28;20020;-74
2021/01/07 12:40:29;;;;;;;3.58;1.40;;;;;;;;;;5070050;28;20048;-74
2021/01/07 12:43:03;;;;;;;3.58;1.75;;;;;;;;;;5071715;28;20050;-75
2021/01/07 12:45:29;;;;;;;7.32;3.67;;;;;;;;;;5070641;28;20029;-74
2021/01/07 12:47:56;;;;;;;4.07;1.95;;;;;;;;;;5069666;28;20033;-74
2021/01/07 12:50:23;;;;;;;3.42;1.65;;;;;;;;;;5071665;28;20342;-74
2021/01/07 12:52:52;;;;;;;4.68;1.80;;;;;;;;;;5055148;28;20377;-74
2021/01/07 12:55:19;;;;;;;7.30;3.03;;;;;;;;;;5052384;28;20082;-75
2021/01/07 12:58:04;;;;;;;7.72;3.25;;;;;;;;;;5051822;28;20014;-74
2021/01/07 13:00:35;;;;;;;10.43;2.08;;;;;;;;;;5051711;28;20071;-74
2021/01/07 13:03:16;;;;;;;7.25;1.98;;;;;;;;;;5055948;28;20096;-74
2021/01/07 13:05:47;;;;;;;3.35;1.58;;;;;;;;;;5054272;28;20036;-73
2021/01/07 13:08:13;;;;;;;10.80;4.50;;;;;;;;;;5055729;28;20407;-73
2021/01/07 13:10:39;;;;;;;8.27;3.13;;;;;;;;;;5054254;28;20112;-74
2021/01/07 13:13:06;;;;;;;5.82;2.10;;;;;;;;;;5054376;28;20021;-74
2021/01/07 13:15:32;;;;;;;4.53;2.30;;;;;;;;;;5055652;28;20013;-74
2021/01/07 13:17:58;;;;;;;5.40;1.90;;;;;;;;;;5054268;28;20112;-73
2021/01/07 13:20:24;;;;;;;7.97;2.00;;;;;;;;;;5055342;28;20098;-74
2021/01/07 13:22:51;;;;;;;4.50;2.00;;;;;;;;;;5054124;28;20024;-74
2021/01/07 13:25:18;;;;;;;4.93;1.38;;;;;;;;;;5053986;28;20040;-74
2021/01/07 13:27:44;;;;;;;4.68;1.80;;;;;;;;;;5053618;28;20063;-73
2021/01/07 13:30:11;;;;;;;6.75;2.60;;;;;;;;;;5055429;28;20009;-75
2021/01/07 13:32:38;;;;;;;7.13;2.38;;;;;;;;;;5055099;28;20013;-74
2021/01/07 13:35:06;;;;;;;7.65;2.97;;;;;;;;;;5055324;28;20025;-74
2021/01/07 13:37:32;;;;;;;7.40;2.35;;;;;;;;;;5053871;28;20017;-73
2021/01/07 13:40:00;;;;;;;6.70;2.10;;;;;;;;;;5053316;28;20028;-73
2021/01/07 13:42:26;;;;;;;6.07;2.10;;;;;;;;;;5055115;28;20025;-74
2021/01/07 13:44:55;;;;;;;22.02;8.25;;;;;;;;;;5054538;28;20025;-72
2021/01/07 13:47:22;;;;;;;7.15;2.92;;;;;;;;;;5053672;28;20036;-73
2021/01/07 13:49:54;;;;;;;6.53;2.85;;;;;;;;;;5055002;28;20071;-73
2021/01/07 13:52:22;;;;;;;6.43;3.15;;;;;;;;;;5063143;28;20020;-73
2021/01/07 13:54:51;;;;;;;7.25;3.45;;;;;;;;;;5063437;28;20096;-73
2021/01/07 13:57:17;;;;;;;10.00;3.55;;;;;;;;;;5062924;28;20024;-73
2021/01/07 13:59:43;;;;;;;9.63;3.70;;;;;;;;;;5064210;28;20013;-73
2021/01/07 14:02:09;;;;;;;8.88;4.13;;;;;;;;;;5060530;28;20070;-73
2021/01/07 14:04:42;;;;;;;7.68;3.20;;;;;;;;;;5063302;28;20043;-74
2021/01/07 14:07:10;;;;;;;6.07;3.00;;;;;;;;;;5073224;28;20027;-74
2021/01/07 14:09:39;;;;;;;13.13;5.25;;;;;;;;;;5073031;28;20097;-75
2021/01/07 14:12:09;;;;;;;7.20;3.38;;;;;;;;;;5073315;28;20017;-75
2021/01/07 14:14:35;;;;;;;7.30;2.63;;;;;;;;;;5073352;28;20109;-75
2021/01/07 14:17:01;;;;;;;11.45;3.08;;;;;;;;;;5073192;28;20066;-75
2021/01/07 14:19:27;;;;;;;6.22;2.78;;;;;;;;;;5073092;28;20017;-74
2021/01/07 14:21:55;;;;;;;5.25;2.28;;;;;;;;;;5074181;28;20608;-74
2021/01/07 14:24:21;;;;;;;6.65;3.15;;;;;;;;;;5072785;28;20472;-74
2021/01/07 14:27:05;;;;;;;8.68;2.97;;;;;;;;;;5072885;28;20025;-74
2021/01/07 14:29:34;;;;;;;8.52;1.88;;;;;;;;;;5072864;28;20020;-73
2021/01/07 14:32:03;;;;;;;7.25;2.35;;;;;;;;;;5074032;28;20027;-73